Dalhart Municipal Airport
KDHT : now visible

Airfield :











YOU CAN JOIN US ON...

 
LOGIN :

Register | Disclaimer

   EN    FR    IT 

 









Legend :    VFR   Marginal VFR   IFR   Intensive IFR   Very Intensive IFR
Visi :
Ceiling :
>= 8 km
>= 3000ft
5 to 8 km
1000 to 3000 ft
1500m to 5 km
500 to 1000 ft
800 to 1500m
200 to 500 ft
< 800m
< 200 ft
Symbols :   Thunderstorms  Fog  Heavy snow  Heavy precipitations  Wind > 20 kt






- Airport Elevation : 3991 ft


KDHT - Dalhart Municipal

CURRENT METAR :
  • 280453Z AUTO 03019G26KT 10SM FEW100 M01/M08 A3000 RMK AO2 PK WND 03027/0355 SLP138 T10111078 $

EXPIRED METARs :
  • 280353Z AUTO 03018G28KT 10SM FEW110 M01/M07 A2998 RMK AO2 PK WND 03033/0302 SLP132 T10061072 $
  • 280253Z AUTO 03022G30KT 10SM FEW110 01/M07 A2993 RMK AO2 PK WND 02037/0225 SLP117 T00111072 53067 $
  • 280153Z AUTO 03019G30KT 10SM CLR 04/M07 A2985 RMK AO2 PK WND 05033/0057 PRESRR SLP091 T00391067
  • 280053Z AUTO 03017G29KT 10SM CLR 06/M06 A2977 RMK AO2 PK WND 02034/0026 SLP063 T00611056

TAF KDHT
Valid from the 28 at 06:00 until the 29 at 06:00 UTC


280520Z 2806/2906 03015G30KT P6SM FEW110
FM280800 03011KT P6SM FEW170
FM281200 01005KT P6SM FEW250
FM281900 19007KT P6SM FEW250
KZAB FIR / North America



MET'MAP, your aeronautical weather chart ! - Copyright ORBIFLY December 2007 - Disclaimer

ORBIFLY MET'MAP TEAM :

Programming & Development : Alexandra Zaïnal
Original concept : Baudouin d'Aumeries
Technical & hardware support : Manuel Goepfert
Assistance : Marc-Olivier Méhu




SOURCES & CREDITS :

   NOAA       Earth
Advisory